Weather at Drummond Island Airport

Public forecast

Using degrees Fahrenheit for public forecast. Weather courtesy of forecast.io.

Current aviation weather report (METAR) for Drummond Island Airport

Retrieved 2021/10/28 10:15 UTC (0 seconds ago):

KDRM 281015Z AUTO 10003KT 10SM CLR 09/07 A2995 RMK AO2 T00850065

Closest aviation forecast (TAF) to Drummond Island Airport

Closest forecast is Sault Ste Marie Airport, 42.7 nm (79.1 km) NW. Retrieved 2021/10/28 08:42 UTC (1 hour ago):

TAF TAF CYAM 280740Z 2808/2820 09007KT P6SM SCT020 PROB40 2808/2812 1/2SM FG VV002 FM281200 08007KT P6SM BKN015 TEMPO 2812/2814 FEW015 PROB30 2812/2814 3/4SM BR BKN003 FM281400 11012KT P6SM FEW012 BECMG 2814/2816 11012G22KT BECMG 2818/2820 11015G25KT RMK NXT FCST BY 281400Z